Time;durP1;ratioP1;P1;durP2;ratioP2;P2;SDS_P1;SDS_P2;PMS_P1;PMS_P2;Temp;Humidity;BMP_temperature;BMP_pressure;BME280_temperature;BME280_humidity;BME280_pressure;Samples;Min_cycle;Max_cycle;Signal;HPM_P1;HPM_P2
2022/03/26 00:00:47;;;;;;;6.93;6.53;;;;;;;-0.15;92.10;101716.38;5037379;28;20025;-64
2022/03/26 00:03:13;;;;;;;6.53;6.22;;;;;;;-0.12;92.67;101716.22;5046622;28;20369;-65
2022/03/26 00:05:40;;;;;;;7.13;6.72;;;;;;;-0.19;92.63;101705.25;5051809;28;20072;-64
2022/03/26 00:08:05;;;;;;;7.15;6.75;;;;;;;-0.24;93.30;101706.41;5035026;28;20481;-66
2022/03/26 00:10:31;;;;;;;6.95;6.55;;;;;;;-0.21;93.37;101707.09;5045554;28;20036;-65
2022/03/26 00:12:57;;;;;;;7.38;6.97;;;;;;;-0.25;93.52;101704.72;5028694;28;20167;-65
2022/03/26 00:15:23;;;;;;;7.55;7.15;;;;;;;-0.28;93.66;101701.34;5033055;28;20083;-65
2022/03/26 00:17:49;;;;;;;6.43;6.13;;;;;;;-0.31;93.82;101711.91;5039205;28;20021;-65
2022/03/26 00:20:15;;;;;;;6.85;6.45;;;;;;;-0.26;94.18;101709.09;5049578;28;20036;-65
2022/03/26 00:22:40;;;;;;;6.72;6.40;;;;;;;-0.31;94.45;101704.09;5048860;28;20389;-64
2022/03/26 00:25:06;;;;;;;7.18;6.78;;;;;;;-0.31;94.06;101696.28;5033410;28;20028;-65
2022/03/26 00:27:32;;;;;;;6.38;6.07;;;;;;;-0.32;94.07;101696.34;5032830;28;20027;-65
2022/03/26 00:29:58;;;;;;;7.25;6.85;;;;;;;-0.38;94.52;101692.28;5064576;28;20029;-64
2022/03/26 00:32:23;;;;;;;6.93;6.53;;;;;;;-0.49;95.21;101694.59;5032911;28;20033;-65
2022/03/26 00:34:49;;;;;;;7.05;6.65;;;;;;;-0.53;95.46;101690.44;5032776;28;20141;-64
2022/03/26 00:37:16;;;;;;;6.78;6.43;;;;;;;-0.53;95.31;101690.44;5041355;28;20028;-64
2022/03/26 00:39:42;;;;;;;7.35;6.95;;;;;;;-0.54;95.37;101695.72;5043459;28;20045;-64
2022/03/26 00:42:08;;;;;;;7.63;7.22;;;;;;;-0.62;95.05;101685.66;5039390;28;20463;-64
2022/03/26 00:44:36;;;;;;;7.20;6.80;;;;;;;-0.61;95.36;101693.41;5032981;28;20032;-65
2022/03/26 00:47:02;;;;;;;7.13;6.72;;;;;;;-0.52;95.55;101692.13;5048132;28;20028;-64
2022/03/26 00:49:27;;;;;;;6.57;6.28;;;;;;;-0.58;95.27;101695.88;5037357;28;20523;-65
2022/03/26 00:51:53;;;;;;;7.18;6.78;;;;;;;-0.63;95.27;101687.44;5034929;28;20044;-64
2022/03/26 00:54:18;;;;;;;7.25;6.85;;;;;;;-0.69;95.41;101681.69;5041215;28;20056;-65
2022/03/26 00:56:44;;;;;;;7.05;6.65;;;;;;;-0.64;95.55;101690.97;5032164;28;20045;-65
2022/03/26 00:59:09;;;;;;;6.95;6.57;;;;;;;-0.65;95.58;101696.25;5035172;28;20061;-66
2022/03/26 01:01:35;;;;;;;6.95;6.55;;;;;;;-0.66;95.60;101687.59;5064161;28;20040;-65
2022/03/26 01:04:01;;;;;;;6.95;6.55;;;;;;;-0.67;95.54;101692.84;5032555;28;20031;-64
2022/03/26 01:06:27;;;;;;;6.75;6.43;;;;;;;-0.68;95.87;101685.97;5032312;28;20028;-65
2022/03/26 01:08:54;;;;;;;7.03;6.63;;;;;;;-0.70;95.87;101693.03;5036188;28;20032;-65
2022/03/26 01:11:20;;;;;;;7.45;7.05;;;;;;;-0.67;95.70;101692.84;5045595;28;20559;-66
2022/03/26 01:13:46;;;;;;;7.22;6.82;;;;;;;-0.76;95.75;101693.31;5051920;28;20100;-64
2022/03/26 01:16:14;;;;;;;7.40;7.00;;;;;;;-0.84;95.95;101678.88;5051256;28;20021;-64
2022/03/26 01:18:41;;;;;;;6.97;6.60;;;;;;;-0.77;95.82;101694.22;5028416;28;20504;-64
2022/03/26 01:21:07;;;;;;;7.15;6.75;;;;;;;-0.79;95.13;101689.09;5031908;28;20060;-64
2022/03/26 01:23:33;;;;;;;7.55;7.13;;;;;;;-0.83;94.92;101682.34;5031322;28;20025;-65
2022/03/26 01:25:58;;;;;;;7.00;6.60;;;;;;;-0.81;95.38;101682.25;5031625;28;20033;-64
2022/03/26 01:28:24;;;;;;;7.00;6.60;;;;;;;-0.94;95.44;101679.41;5044139;28;20084;-65
2022/03/26 01:30:50;;;;;;;7.00;6.60;;;;;;;-0.98;95.68;101683.06;5051680;28;20028;-65
2022/03/26 01:33:15;;;;;;;6.93;6.53;;;;;;;-1.01;95.62;101683.22;5036659;28;20032;-65
2022/03/26 01:35:41;;;;;;;6.72;6.43;;;;;;;-0.96;96.07;101683.81;5037316;28;20134;-64
2022/03/26 01:38:07;;;;;;;7.88;7.38;;;;;;;-1.01;95.63;101673.66;5033115;28;20021;-65
2022/03/26 01:40:34;;;;;;;7.55;7.15;;;;;;;-1.00;96.17;101670.13;5042955;28;20079;-64
2022/03/26 01:43:00;;;;;;;7.43;7.03;;;;;;;-1.13;96.30;101662.03;5032437;28;20061;-64
2022/03/26 01:45:27;;;;;;;7.85;7.35;;;;;;;-1.22;96.59;101653.81;5035035;28;20429;-65
2022/03/26 01:47:54;;;;;;;7.10;6.70;;;;;;;-1.19;96.58;101664.91;5031289;28;20078;-65
2022/03/26 01:50:19;;;;;;;7.13;6.72;;;;;;;-1.12;96.72;101675.91;5032304;28;20025;-65
2022/03/26 01:52:45;;;;;;;6.72;6.43;;;;;;;-1.14;96.75;101677.72;5031542;28;20029;-65
2022/03/26 01:55:11;;;;;;;7.25;6.85;;;;;;;-1.23;96.52;101670.34;5015247;28;20079;-65
2022/03/26 01:57:38;;;;;;;7.13;6.72;;;;;;;-1.19;96.73;101664.06;5029445;28;20044;-64
2022/03/26 02:00:05;;;;;;;6.70;6.40;;;;;;;-1.24;96.89;101666.91;5036932;28;20022;-65
2022/03/26 02:02:30;;;;;;;7.20;6.80;;;;;;;-1.30;97.36;101659.38;5032739;28;20025;-65
2022/03/26 02:04:56;;;;;;;6.80;6.40;;;;;;;-1.37;98.20;101650.16;5047177;28;20477;-65
2022/03/26 02:07:22;;;;;;;7.43;7.03;;;;;;;-1.24;97.62;101663.47;5031141;28;20026;-64
2022/03/26 02:09:48;;;;;;;6.50;6.20;;;;;;;-1.28;98.01;101654.09;5017685;28;20047;-64
2022/03/26 02:12:28;;;;;;;7.20;6.80;;;;;;;-1.28;97.48;101654.09;5031706;28;20025;-65
2022/03/26 02:14:55;;;;;;;6.75;6.43;;;;;;;-1.22;97.55;101657.25;5030887;28;20035;-65
2022/03/26 02:17:21;;;;;;;6.95;6.55;;;;;;;-1.29;97.25;101650.66;5051539;28;20021;-64
2022/03/26 02:20:07;;;;;;;7.68;7.20;;;;;;;-1.32;97.63;101655.13;5039036;28;20065;-64
2022/03/26 02:22:33;;;;;;;6.88;6.47;;;;;;;-1.20;97.96;101655.41;5028814;28;20488;-64
2022/03/26 02:24:59;;;;;;;6.57;6.28;;;;;;;-1.17;97.24;101662.25;5031926;28;20052;-64
2022/03/26 02:27:29;;;;;;;8.00;7.50;;;;;;;-1.24;97.71;101656.50;5031644;28;20021;-66
2022/03/26 02:29:55;;;;;;;7.00;6.60;;;;;;;-1.31;97.50;101649.88;5039160;28;20048;-65
2022/03/26 02:32:23;;;;;;;6.68;6.38;;;;;;;-1.29;97.19;101661.06;5033661;28;20480;-64
2022/03/26 02:34:49;;;;;;;7.13;6.72;;;;;;;-1.28;97.57;101651.50;5044114;28;20024;-64
2022/03/26 02:37:16;;;;;;;6.97;6.57;;;;;;;-1.19;97.80;101648.44;5033777;28;20057;-65
2022/03/26 02:39:42;;;;;;;6.85;6.45;;;;;;;-1.24;97.46;101647.84;5035152;28;20030;-64
2022/03/26 02:42:08;;;;;;;7.03;6.63;;;;;;;-1.24;97.02;101645.25;5035874;28;20026;-65
2022/03/26 02:44:33;;;;;;;7.05;6.65;;;;;;;-1.34;97.12;101633.56;5075781;28;20139;-66
2022/03/26 02:46:59;;;;;;;6.93;6.53;;;;;;;-1.38;97.45;101640.66;5047680;28;20029;-66
2022/03/26 02:49:24;;;;;;;7.28;6.88;;;;;;;-1.30;97.46;101641.16;5029435;28;20030;-66
2022/03/26 02:51:50;;;;;;;7.78;7.28;;;;;;;-1.38;97.42;101630.25;5015082;28;20028;-65
2022/03/26 02:54:18;;;;;;;7.00;6.60;;;;;;;-1.40;97.32;101634.66;5014835;28;20022;-65
2022/03/26 02:56:48;;;;;;;6.72;6.38;;;;;;;-1.43;97.79;101643.47;5014896;28;20046;-66
2022/03/26 02:59:14;;;;;;;7.15;6.75;;;;;;;-1.41;97.65;101644.25;5030315;28;20017;-66
2022/03/26 03:01:39;;;;;;;6.80;6.45;;;;;;;-1.50;97.69;101639.47;5052160;28;20040;-65
2022/03/26 03:04:05;;;;;;;7.00;6.60;;;;;;;-1.54;97.94;101637.06;5045076;28;20396;-64
2022/03/26 03:06:31;;;;;;;7.40;7.00;;;;;;;-1.51;98.94;101648.19;5042330;28;20032;-65
2022/03/26 03:08:57;;;;;;;7.43;7.03;;;;;;;-1.57;98.50;101634.59;5054427;28;20074;-64
2022/03/26 03:11:23;;;;;;;7.13;6.72;;;;;;;-1.58;98.89;101638.13;5034848;28;20029;-65
2022/03/26 03:13:48;;;;;;;7.10;6.70;;;;;;;-1.65;98.87;101623.72;5051232;28;20124;-65
2022/03/26 03:16:14;;;;;;;7.05;6.65;;;;;;;-1.63;98.71;101634.88;5039222;28;20461;-64
2022/03/26 03:18:40;;;;;;;6.80;6.40;;;;;;;-1.59;98.95;101633.84;5044218;28;20037;-64
2022/03/26 03:21:06;;;;;;;6.90;6.50;;;;;;;-1.62;98.02;101632.19;5034256;28;20026;-64
2022/03/26 03:23:31;;;;;;;7.45;7.05;;;;;;;-1.68;98.22;101629.91;5034059;28;20035;-65
2022/03/26 03:25:57;;;;;;;6.32;6.03;;;;;;;-1.71;98.09;101617.03;5034034;28;20750;-65
2022/03/26 03:28:23;;;;;;;7.00;6.60;;;;;;;-1.69;97.93;101615.19;5034329;28;20100;-65
2022/03/26 03:30:48;;;;;;;7.25;6.85;;;;;;;-1.75;97.66;101608.53;5034352;28;20025;-64
2022/03/26 03:33:14;;;;;;;6.80;6.40;;;;;;;-1.76;98.35;101611.19;5031566;28;20056;-65
2022/03/26 03:35:40;;;;;;;7.47;7.07;;;;;;;-1.72;98.44;101623.13;5045215;28;20022;-64
2022/03/26 03:38:05;;;;;;;6.88;6.47;;;;;;;-1.75;98.37;101624.13;5031499;28;20029;-65
2022/03/26 03:40:31;;;;;;;6.75;6.38;;;;;;;-1.74;98.47;101622.38;5033492;28;20068;-64
2022/03/26 03:42:56;;;;;;;6.40;6.10;;;;;;;-1.80;98.52;101625.25;5034021;28;20476;-65
2022/03/26 03:45:22;;;;;;;7.28;6.88;;;;;;;-1.79;97.95;101613.94;5035343;28;20025;-66
2022/03/26 03:47:47;;;;;;;7.65;7.18;;;;;;;-1.76;97.91;101621.59;5022801;28;20029;-65
2022/03/26 03:50:13;;;;;;;6.57;6.28;;;;;;;-1.74;98.52;101624.97;5036909;28;20386;-65
2022/03/26 03:52:38;;;;;;;6.75;6.40;;;;;;;-1.73;98.04;101617.09;5042404;28;20033;-65
2022/03/26 03:55:05;;;;;;;6.95;6.55;;;;;;;-1.68;98.27;101617.75;5033660;28;20519;-65
2022/03/26 03:57:31;;;;;;;6.97;6.57;;;;;;;-1.70;98.37;101616.94;5051487;28;20043;-65
2022/03/26 03:59:56;;;;;;;7.05;6.65;;;;;;;-1.63;98.11;101619.28;5050371;28;20502;-65
2022/03/26 04:02:22;;;;;;;7.43;7.03;;;;;;;-1.54;97.94;101616.25;5013677;28;20030;-65
2022/03/26 04:04:47;;;;;;;6.40;6.10;;;;;;;-1.52;97.30;101615.28;5016118;28;20037;-65
2022/03/26 04:07:13;;;;;;;7.20;6.80;;;;;;;-1.49;97.08;101614.28;5042241;28;20059;-65
2022/03/26 04:09:38;;;;;;;6.95;6.55;;;;;;;-1.41;96.70;101615.59;5048107;28;20044;-65
2022/03/26 04:12:04;;;;;;;7.28;6.88;;;;;;;-1.12;95.83;101616.84;5033475;28;20114;-65
2022/03/26 04:14:31;;;;;;;6.90;6.50;;;;;;;-0.91;94.35;101620.19;5029453;28;20132;-65
2022/03/26 04:16:57;;;;;;;6.78;6.38;;;;;;;-0.59;92.55;101610.81;5033212;28;20026;-65
2022/03/26 04:19:23;;;;;;;7.30;6.90;;;;;;;-0.32;90.70;101605.94;5032986;28;20042;-65
2022/03/26 04:21:48;;;;;;;7.05;6.65;;;;;;;0.11;89.02;101611.53;5034176;28;20045;-65
2022/03/26 04:24:14;;;;;;;6.25;5.95;;;;;;;0.48;87.38;101617.41;5048337;28;20029;-64
2022/03/26 04:26:39;;;;;;;6.70;6.32;;;;;;;0.91;85.25;101622.88;5052700;28;20033;-65
2022/03/26 04:29:05;;;;;;;6.28;5.97;;;;;;;1.21;83.08;101613.31;5026811;28;20022;-66
2022/03/26 04:31:31;;;;;;;6.28;5.97;;;;;;;1.51;81.41;101609.84;5013826;28;20112;-65
2022/03/26 04:34:01;;;;;;;6.03;5.72;;;;;;;1.85;79.48;101577.31;5021074;28;20393;-65
2022/03/26 04:36:29;;;;;;;6.20;5.90;;;;;;;2.35;77.27;101600.38;5046721;28;20487;-65
2022/03/26 04:38:59;;;;;;;6.47;6.18;;;;;;;2.71;75.77;101606.84;5045504;28;20419;-64
2022/03/26 04:41:25;;;;;;;6.65;6.35;;;;;;;3.15;73.14;101618.88;5039399;28;20433;-65
2022/03/26 04:43:51;;;;;;;6.47;6.18;;;;;;;3.97;69.06;101623.84;5016979;28;20076;-65
2022/03/26 04:46:16;;;;;;;7.15;6.75;;;;;;;5.24;64.53;101620.03;5039858;28;20166;-65
2022/03/26 04:48:42;;;;;;;6.72;6.43;;;;;;;6.63;58.85;101610.19;5038014;28;20033;-65
2022/03/26 04:51:07;;;;;;;6.40;6.10;;;;;;;7.84;54.12;101613.38;5052631;28;20396;-65
2022/03/26 04:53:33;;;;;;;6.68;6.38;;;;;;;8.37;51.44;101613.25;5043789;28;20035;-65
2022/03/26 04:55:58;;;;;;;6.43;6.13;;;;;;;9.07;49.54;101601.72;5032363;28;20049;-65
2022/03/26 04:58:24;;;;;;;6.80;6.50;;;;;;;10.10;47.31;101603.66;5029267;28;20025;-66
2022/03/26 05:00:49;;;;;;;6.38;6.07;;;;;;;10.70;44.38;101609.38;5030637;28;20045;-65
2022/03/26 05:03:15;;;;;;;6.60;6.30;;;;;;;10.99;43.19;101611.84;5039534;28;20567;-66
2022/03/26 05:05:40;;;;;;;7.28;6.97;;;;;;;11.63;40.82;101604.59;5038025;28;20036;-66
2022/03/26 05:08:06;;;;;;;6.88;6.57;;;;;;;12.62;38.12;101612.13;5049897;28;20029;-66
2022/03/26 05:10:32;;;;;;;6.88;6.57;;;;;;;13.08;38.40;101620.59;5037831;28;20029;-66
2022/03/26 05:13:01;;;;;;;7.00;6.70;;;;;;;13.20;36.40;101621.94;5031890;28;20063;-66
2022/03/26 05:15:29;;;;;;;7.00;6.70;;;;;;;13.94;34.98;101620.06;5032609;28;20101;-67
2022/03/26 05:17:56;;;;;;;7.22;6.93;;;;;;;13.87;34.64;101621.75;5035878;28;20018;-66
2022/03/26 05:20:22;;;;;;;7.80;7.50;;;;;;;15.25;32.12;101610.47;5036188;28;20405;-67
2022/03/26 05:22:49;;;;;;;7.03;6.72;;;;;;;14.84;32.13;101618.78;5044836;28;20037;-66
2022/03/26 05:25:15;;;;;;;7.10;6.80;;;;;;;15.83;31.36;101625.03;5041361;28;20061;-67
2022/03/26 05:27:50;;;;;;;6.75;6.45;;;;;;;16.24;30.76;101622.75;5030659;28;20040;-66
2022/03/26 05:30:17;;;;;;;7.70;7.40;;;;;;;15.85;30.39;101620.31;5046623;28;20502;-66
2022/03/26 05:32:43;;;;;;;6.97;6.68;;;;;;;16.62;29.58;101640.56;5051422;28;20088;-67
2022/03/26 05:35:13;;;;;;;7.38;7.07;;;;;;;16.44;29.84;101631.03;5046696;28;20100;-67
2022/03/26 05:37:46;;;;;;;7.43;7.13;;;;;;;17.96;27.45;101642.53;5020791;28;20044;-66
2022/03/26 05:40:16;;;;;;;6.88;6.57;;;;;;;17.76;27.53;101639.69;5027847;28;20044;-66
2022/03/26 05:42:42;;;;;;;7.47;7.18;;;;;;;18.29;27.13;101649.94;5031672;28;20159;-67
2022/03/26 05:45:09;;;;;;;7.57;7.28;;;;;;;18.41;26.75;101651.06;5036458;28;20041;-67
2022/03/26 05:47:36;;;;;;;7.78;7.47;;;;;;;18.67;26.71;101648.53;5044431;28;20025;-67
2022/03/26 05:50:03;;;;;;;7.75;7.45;;;;;;;18.45;26.26;101644.28;5035013;28;20029;-65
2022/03/26 05:52:28;;;;;;;7.47;7.18;;;;;;;19.28;24.73;101643.13;5046757;28;20083;-66
2022/03/26 05:54:54;;;;;;;7.20;6.90;;;;;;;18.92;26.01;101643.44;5038842;28;20021;-65
2022/03/26 05:57:19;;;;;;;7.20;6.90;;;;;;;20.73;23.87;101652.06;5029854;28;20056;-65
2022/03/26 05:59:45;;;;;;;7.30;7.00;;;;;;;20.65;23.73;101649.63;5031190;28;20096;-65
2022/03/26 06:02:13;;;;;;;7.20;6.90;;;;;;;20.04;23.88;101648.09;5035045;28;20026;-65
2022/03/26 06:04:40;;;;;;;7.22;6.93;;;;;;;19.68;25.28;101647.72;5031971;28;20021;-65
2022/03/26 06:07:05;;;;;;;7.40;7.10;;;;;;;20.14;24.00;101650.38;5037850;28;20025;-65
2022/03/26 06:09:31;;;;;;;7.10;6.80;;;;;;;20.42;23.84;101655.50;5031959;28;20040;-65
2022/03/26 06:11:56;;;;;;;7.50;7.20;;;;;;;20.33;23.95;101656.75;5037592;28;20029;-65
2022/03/26 06:14:23;;;;;;;7.18;6.88;;;;;;;19.71;23.69;101658.09;5051738;28;20078;-65
2022/03/26 06:16:48;;;;;;;7.30;7.00;;;;;;;20.09;23.96;101664.47;5046720;28;20508;-65
2022/03/26 06:19:14;;;;;;;7.30;7.00;;;;;;;20.03;23.78;101657.22;5042624;28;20120;-65
2022/03/26 06:21:40;;;;;;;7.18;6.88;;;;;;;20.52;23.76;101655.88;5035908;28;20099;-65
2022/03/26 06:24:06;;;;;;;7.07;6.78;;;;;;;19.88;23.96;101656.63;5038240;28;20060;-64
2022/03/26 06:26:32;;;;;;;7.10;6.80;;;;;;;19.82;24.55;101663.66;5043561;28;20084;-65
2022/03/26 06:28:58;;;;;;;7.00;6.70;;;;;;;21.67;23.05;101672.06;5037992;28;20029;-65
2022/03/26 06:31:24;;;;;;;7.18;6.88;;;;;;;21.85;22.29;101665.88;5038043;28;20496;-65
2022/03/26 06:33:50;;;;;;;7.15;6.85;;;;;;;20.25;23.30;101665.88;5045304;28;20064;-65
2022/03/26 06:36:18;;;;;;;7.10;6.80;;;;;;;20.86;23.32;101665.50;5042327;28;20512;-65
2022/03/26 06:38:44;;;;;;;6.97;6.68;;;;;;;20.66;23.44;101659.38;5045079;28;20045;-65
2022/03/26 06:41:10;;;;;;;7.10;6.80;;;;;;;20.79;23.25;101663.88;5037811;28;20373;-65
2022/03/26 06:43:37;;;;;;;6.95;6.65;;;;;;;20.72;23.35;101665.78;5057240;28;20100;-65
2022/03/26 06:46:04;;;;;;;6.90;6.60;;;;;;;22.01;22.01;101673.41;5058011;28;20036;-66
2022/03/26 06:48:30;;;;;;;7.13;6.82;;;;;;;21.32;21.87;101660.91;5046156;28;20205;-66
2022/03/26 06:50:55;;;;;;;6.95;6.65;;;;;;;21.81;21.74;101662.78;5035987;28;20049;-66
2022/03/26 06:53:21;;;;;;;7.07;6.78;;;;;;;20.52;22.85;101663.97;5048410;28;20052;-64
2022/03/26 06:55:46;;;;;;;7.20;6.90;;;;;;;22.27;21.15;101661.56;5037966;28;20057;-65
2022/03/26 06:58:12;;;;;;;7.30;7.00;;;;;;;21.49;21.93;101670.13;5047708;28;20033;-64
2022/03/26 07:00:37;;;;;;;6.90;6.60;;;;;;;22.48;21.08;101673.81;5038425;28;20099;-64
2022/03/26 07:03:03;;;;;;;7.13;6.82;;;;;;;21.17;22.00;101672.81;5045123;28;20026;-64
2022/03/26 07:05:28;;;;;;;7.25;6.95;;;;;;;21.98;21.18;101673.88;5039938;28;20033;-63
2022/03/26 07:07:54;;;;;;;7.00;6.70;;;;;;;22.73;21.23;101676.41;5037459;28;20087;-63
2022/03/26 07:10:20;;;;;;;7.20;6.90;;;;;;;22.64;20.99;101670.50;5037643;28;20374;-64
2022/03/26 07:12:46;;;;;;;7.18;6.88;;;;;;;23.29;20.26;101669.84;5037693;28;20021;-63
2022/03/26 07:15:11;;;;;;;7.20;6.90;;;;;;;24.33;19.99;101665.63;5037111;28;20025;-65
2022/03/26 07:17:42;;;;;;;7.30;7.00;;;;;;;23.34;20.68;101672.66;5025398;28;20598;-63
2022/03/26 07:20:08;;;;;;;7.13;6.82;;;;;;;21.64;21.36;101670.63;5017595;28;20548;-63
2022/03/26 07:22:34;;;;;;;7.07;6.78;;;;;;;22.98;20.23;101658.19;5026472;28;20033;-63
2022/03/26 07:25:00;;;;;;;7.38;7.07;;;;;;;23.99;19.87;101662.66;5034332;28;20037;-63
2022/03/26 07:27:33;;;;;;;7.10;6.80;;;;;;;23.66;19.92;101655.13;5034372;28;20018;-64
2022/03/26 07:29:59;;;;;;;7.20;6.90;;;;;;;23.48;20.04;101648.91;5034216;28;20112;-65
2022/03/26 07:32:25;;;;;;;7.57;7.28;;;;;;;24.02;20.02;101668.66;5024588;28;20108;-63
2022/03/26 07:34:51;;;;;;;7.30;7.00;;;;;;;23.01;20.24;101644.22;5034185;28;20083;-63
2022/03/26 07:37:17;;;;;;;7.20;6.90;;;;;;;23.54;20.19;101653.41;5036329;28;20025;-63
2022/03/26 07:39:42;;;;;;;7.20;6.90;;;;;;;23.99;19.94;101648.28;5033602;28;20036;-63
2022/03/26 07:42:08;;;;;;;7.63;7.32;;;;;;;23.88;20.09;101647.25;5033912;28;20057;-64
2022/03/26 07:44:33;;;;;;;7.40;7.10;;;;;;;23.85;20.21;101638.72;5051197;28;20435;-64
2022/03/26 07:46:59;;;;;;;7.18;6.88;;;;;;;23.77;20.49;101639.09;5019631;28;20489;-64
2022/03/26 07:49:24;;;;;;;7.32;7.00;;;;;;;23.93;19.89;101633.78;5032214;28;20040;-65
2022/03/26 07:51:50;;;;;;;7.10;6.80;;;;;;;24.36;19.58;101629.03;5033943;28;20492;-66
2022/03/26 07:54:16;;;;;;;7.13;6.82;;;;;;;23.03;20.46;101622.34;5032819;28;20034;-63
2022/03/26 07:56:41;;;;;;;7.07;6.78;;;;;;;23.98;19.99;101622.25;5014014;28;20083;-62
2022/03/26 07:59:07;;;;;;;7.35;7.05;;;;;;;24.42;19.74;101626.19;5013959;28;20460;-64
2022/03/26 08:01:32;;;;;;;7.10;6.80;;;;;;;24.08;20.05;101613.50;5033907;28;20160;-65
2022/03/26 08:03:58;;;;;;;7.10;6.80;;;;;;;25.32;19.15;101625.47;5033168;28;20486;-64
2022/03/26 08:06:24;;;;;;;7.30;7.00;;;;;;;24.62;19.37;101627.69;5033188;28;20029;-64
2022/03/26 08:08:50;;;;;;;6.97;6.68;;;;;;;25.13;18.86;101620.53;5032215;28;20120;-63
2022/03/26 08:11:16;;;;;;;7.00;6.70;;;;;;;24.20;19.67;101617.84;5033219;28;20132;-64
2022/03/26 08:13:41;;;;;;;7.40;7.10;;;;;;;24.75;19.34;101617.38;5027110;28;20017;-64
2022/03/26 08:16:08;;;;;;;7.30;7.00;;;;;;;24.30;19.81;101611.81;5016270;28;20026;-64
2022/03/26 08:18:34;;;;;;;7.38;7.07;;;;;;;24.94;18.95;101607.13;5032280;28;20040;-63
2022/03/26 08:21:00;;;;;;;7.15;6.85;;;;;;;25.07;19.04;101608.75;5036384;28;20086;-64
2022/03/26 08:23:26;;;;;;;7.13;6.82;;;;;;;25.98;18.93;101611.28;5044163;28;20029;-64
2022/03/26 08:28:35;;;;;;;7.30;7.00;;;;;;;25.38;19.10;101598.38;5032862;28;20063;-64
2022/03/26 08:31:01;;;;;;;7.13;6.82;;;;;;;24.80;19.47;101578.63;5033828;28;20029;-63
2022/03/26 08:33:26;;;;;;;7.00;6.70;;;;;;;25.06;19.58;101580.78;5033213;28;20049;-65
2022/03/26 08:35:52;;;;;;;7.50;7.20;;;;;;;24.96;18.52;101574.28;5040104;28;20043;-65
2022/03/26 08:38:17;;;;;;;7.20;6.90;;;;;;;24.16;19.02;101569.75;5035518;28;20033;-63
2022/03/26 08:40:43;;;;;;;7.57;7.28;;;;;;;24.50;19.06;101568.84;5036783;28;20037;-65
2022/03/26 08:43:08;;;;;;;7.47;7.18;;;;;;;24.06;19.99;101564.13;5042375;28;20033;-64
2022/03/26 08:45:37;;;;;;;7.70;7.40;;;;;;;22.82;20.91;101556.81;5033784;28;20017;-64
2022/03/26 08:48:03;;;;;;;7.55;7.25;;;;;;;21.53;21.61;101555.25;5038107;28;20108;-64
2022/03/26 08:50:29;;;;;;;7.10;6.80;;;;;;;22.34;21.19;101546.88;5032982;28;20033;-64
2022/03/26 08:52:55;;;;;;;7.57;7.28;;;;;;;21.11;22.24;101537.94;5038199;28;20022;-64
2022/03/26 08:55:20;;;;;;;8.45;8.05;;;;;;;21.38;22.00;101541.28;5033584;28;20033;-64
2022/03/26 08:57:46;;;;;;;7.82;7.53;;;;;;;22.27;21.86;101532.63;5030707;28;20045;-65
2022/03/26 09:00:13;;;;;;;7.70;7.40;;;;;;;21.70;21.73;101532.00;5044238;28;20040;-64
2022/03/26 09:02:39;;;;;;;7.75;7.45;;;;;;;21.32;22.30;101532.19;5049090;28;20464;-65
2022/03/26 09:05:09;;;;;;;7.32;7.03;;;;;;;20.63;23.72;101516.88;5045207;28;20445;-65
2022/03/26 09:07:36;;;;;;;7.78;7.47;;;;;;;19.57;24.43;101518.13;5041005;28;20086;-65
2022/03/26 09:10:04;;;;;;;8.02;7.70;;;;;;;21.04;22.81;101519.09;5037082;28;20055;-64
2022/03/26 09:12:29;;;;;;;7.95;7.60;;;;;;;21.74;22.17;101517.03;5037361;28;20047;-63
2022/03/26 09:14:55;;;;;;;8.23;7.82;;;;;;;21.40;22.61;101512.16;5040427;28;20107;-65
2022/03/26 09:17:20;;;;;;;7.50;7.20;;;;;;;22.01;22.13;101504.00;5032469;28;20026;-65
2022/03/26 09:19:46;;;;;;;7.40;7.10;;;;;;;21.69;22.50;101507.94;5030493;28;20088;-63
2022/03/26 09:22:11;;;;;;;8.20;7.80;;;;;;;20.92;22.88;101500.06;5044345;28;20052;-63
2022/03/26 09:24:37;;;;;;;7.55;7.25;;;;;;;20.80;23.65;101487.53;5047780;28;20020;-64
2022/03/26 09:27:03;;;;;;;7.80;7.50;;;;;;;20.80;24.52;101492.94;5039301;28;20036;-63
2022/03/26 09:29:28;;;;;;;9.00;8.60;;;;;;;20.72;24.23;101488.63;5041056;28;20083;-64
2022/03/26 09:31:54;;;;;;;7.80;7.50;;;;;;;21.23;24.18;101485.72;5033319;28;20079;-64
2022/03/26 09:34:20;;;;;;;7.75;7.45;;;;;;;20.19;25.23;101485.38;5031984;28;20112;-63
2022/03/26 09:36:46;;;;;;;7.65;7.35;;;;;;;20.78;24.63;101479.66;5034603;28;20104;-63
2022/03/26 09:39:11;;;;;;;7.65;7.35;;;;;;;21.02;24.62;101472.63;5032712;28;20122;-63
2022/03/26 09:41:37;;;;;;;8.13;7.72;;;;;;;20.97;25.18;101469.75;5031407;28;20434;-62
2022/03/26 09:44:03;;;;;;;7.13;6.82;;;;;;;20.11;26.08;101452.25;5044775;28;20071;-63
2022/03/26 09:46:29;;;;;;;8.07;7.68;;;;;;;19.22;28.09;101452.09;5043186;28;20025;-63
2022/03/26 09:48:54;;;;;;;7.63;7.32;;;;;;;19.16;28.28;101426.84;5039772;28;20508;-63
2022/03/26 09:51:22;;;;;;;8.23;7.82;;;;;;;19.57;27.65;101436.53;5033743;28;20037;-63
2022/03/26 09:53:51;;;;;;;7.70;7.40;;;;;;;19.46;27.86;101435.31;5034792;28;20083;-63
2022/03/26 09:56:19;;;;;;;7.80;7.50;;;;;;;18.54;29.19;101433.47;5046342;28;20496;-64
2022/03/26 09:58:44;;;;;;;7.55;7.25;;;;;;;19.07;28.79;101427.28;5031412;28;20025;-65
2022/03/26 10:01:10;;;;;;;7.55;7.25;;;;;;;18.74;29.32;101422.78;5031219;28;20025;-65
2022/03/26 10:03:39;;;;;;;8.43;8.02;;;;;;;18.54;30.34;101416.53;5031720;28;20028;-65
2022/03/26 10:06:07;;;;;;;7.32;7.03;;;;;;;18.54;29.66;101397.72;5033728;28;20026;-66
2022/03/26 10:08:36;;;;;;;8.15;7.75;;;;;;;18.34;30.12;101405.75;5051151;28;20028;-65
2022/03/26 10:11:03;;;;;;;7.13;6.82;;;;;;;18.38;29.85;101402.44;5039632;28;20035;-65
2022/03/26 10:13:47;;;;;;;8.10;7.70;;;;;;;18.23;30.52;101389.22;5049939;28;20033;-65
2022/03/26 10:16:14;;;;;;;;;;;;;;;17.47;31.67;101390.34;5051604;28;20541;-65
2022/03/26 10:18:44;;;;;;;7.93;7.57;;;;;;;17.34;32.05;101373.19;5040605;28;20296;-65
2022/03/26 10:21:18;;;;;;;8.02;7.63;;;;;;;17.52;31.68;101374.50;5043955;28;20029;-66
2022/03/26 10:23:46;;;;;;;7.93;7.57;;;;;;;17.31;31.86;101362.84;5013831;28;20050;-66
2022/03/26 10:26:21;;;;;;;7.20;6.90;;;;;;;17.28;32.09;101359.72;5028357;28;20492;-67
2022/03/26 10:28:52;;;;;;;7.60;7.30;;;;;;;17.20;32.23;101363.41;5035931;28;20139;-67
2022/03/26 10:34:11;;;;;;;8.05;7.65;;;;;;;17.62;32.04;101350.78;5031898;28;20064;-69
2022/03/26 10:36:44;;;;;;;7.97;7.57;;;;;;;17.47;31.90;101336.69;5032761;28;20018;-65
2022/03/26 10:39:20;;;;;;;7.63;7.32;;;;;;;16.91;32.32;101334.16;5042684;28;20381;-68
2022/03/26 10:41:47;;;;;;;7.28;6.97;;;;;;;17.17;31.72;101326.25;5039222;28;20021;-67
2022/03/26 10:44:18;;;;;;;7.78;7.47;;;;;;;17.29;32.13;101327.34;5028613;28;20057;-68
2022/03/26 10:47:04;;;;;;;7.70;7.40;;;;;;;16.97;32.40;101320.78;5031207;28;20037;-68
2022/03/26 10:49:36;;;;;;;7.85;7.53;;;;;;;17.21;32.05;101324.84;5027083;28;20033;-68
2022/03/26 10:52:05;;;;;;;7.28;6.97;;;;;;;17.32;31.85;101316.22;5021100;28;20032;-67
2022/03/26 10:54:33;;;;;;;7.38;7.07;;;;;;;17.35;31.68;101318.50;5042580;28;20033;-67
2022/03/26 10:57:00;;;;;;;7.30;7.00;;;;;;;17.38;31.62;101310.06;5042877;28;20049;-64
2022/03/26 10:59:27;;;;;;;7.57;7.28;;;;;;;17.17;31.61;101295.94;5053873;28;20175;-67
2022/03/26 11:01:53;;;;;;;7.65;7.35;;;;;;;17.57;31.60;101294.25;5038630;28;20499;-64
2022/03/26 11:04:19;;;;;;;9.77;9.27;;;;;;;17.42;31.53;101288.22;5032325;28;20037;-64
2022/03/26 11:06:45;;;;;;;7.65;7.35;;;;;;;17.34;31.44;101271.25;5035232;28;20064;-68
2022/03/26 11:09:11;;;;;;;7.68;7.38;;;;;;;17.38;31.40;101277.88;5034759;28;20083;-69
2022/03/26 11:11:37;;;;;;;7.45;7.15;;;;;;;17.46;31.63;101271.50;5033862;28;20036;-66
2022/03/26 11:14:14;;;;;;;8.15;7.75;;;;;;;17.40;31.67;101277.66;5029567;28;20109;-67
2022/03/26 11:16:39;;;;;;;7.60;7.30;;;;;;;17.56;31.69;101261.22;5021578;28;20022;-67
2022/03/26 11:19:16;;;;;;;8.00;7.60;;;;;;;17.51;31.85;101257.50;5029161;28;20337;-65
2022/03/26 11:21:57;;;;;;;7.50;7.20;;;;;;;17.46;31.45;101249.22;5031076;28;20516;-65
2022/03/26 11:24:44;;;;;;;7.28;6.97;;;;;;;17.73;31.46;101252.81;5042623;28;20042;-66
2022/03/26 11:27:26;;;;;;;7.85;7.53;;;;;;;17.71;31.49;101236.09;5052038;28;20435;-68
2022/03/26 11:30:16;;;;;;;7.75;7.45;;;;;;;17.69;31.43;101225.50;5034343;28;20056;-70